METAR stanice u blizini

 

LYBE - Beograd / Surčin, Srbija
Ažurirano: 01/10/2020 18:00
Vedro
Vedro
 Pravac vetra JI
Vetar: JI 9 km/h
Temperatura: 18°C
Tačka rose: 11°C
Vlažnost: 64%
Pritisak: 1007 hPa
Pregled: Vedro
Vidljivost: greater than 10 km
2020/10/01 16:00 LYBE 011600Z 14005KT CAVOK 18/11 Q1007 NOSIG
LYBT - Beograd / Batajnica, Srbija
Ažurirano: 01/10/2020 18:00
Vedro
Vedro
 Pravac vetra JI
Vetar: JI 6 km/h
Temperatura: 18°C
Tačka rose: 11°C
Vlažnost: 64%
Pritisak: 1006 hPa
Pregled: Vedro
Vidljivost: greater than 10 km
2020/10/01 16:00 LYBT 011600Z 14003KT CAVOK 18/11 Q1006 NOSIG
LYVR - Vršac, Srbija
Ažurirano: 01/10/2020 18:00
Partly Cloudy
Partly Cloudy
 Pravac vetra JJI
Vetar: JJI 15 km/h
Temperatura: 15°C
Tačka rose: 12°C
Vlažnost: 82%
Pritisak: 1007 hPa
Oblaci: Partly Cloudy
Vidljivost: 10 km
Cloud details: Partly Cloudy 914 m
2020/10/01 16:00 LYVR 011600Z 15008KT 9999 SCT030 15/12 Q1007
 
LYKV - Lađevci, Srbija
Ažurirano: 01/10/2020 18:00
Partly Cloudy
Partly Cloudy
 Pravac vetra varies
Vetar: varies 4 km/h
Temperatura: 15°C
Tačka rose: 13°C
Vlažnost: 88%
Pritisak: 1008 hPa
Oblaci: Partly Cloudy
Vidljivost: 10 km
Cloud details: Partly Cloudy 1524 m
2020/10/01 16:00 LYKV 011600Z VRB02KT 9999 SCT050 15/13 Q1008 NOSIG
LYNI - Niš, Srbija
Ažurirano: 01/10/2020 18:00
Slaba kiša, Delimično oblačno
Slaba kiša, Delimično oblačno
 Pravac vetra IJI
Vetar: IJI 9 km/h
Temperatura: 15°C
Tačka rose: 11°C
Vlažnost: 77%
Pritisak: 1009 hPa
Pregled: Light Rain
Oblaci: Partly Cloudy
Vidljivost: 10 km
Cloud details: Partly Cloudy 1219 m
2020/10/01 16:00 LYNI 011600Z 12005KT 9999 -RA SCT040 15/11 Q1009 NOSIG
BKPR - Priština, Srbija
Ažurirano: 01/10/2020 18:00
Mostly Cloudy
Mostly Cloudy
 Pravac vetra ZJZ
Vetar: ZJZ 30 km/h
Temperatura: 17°C
Tačka rose: 7°C
Vlažnost: 52%
Pritisak: 1009 hPa
Oblaci: Mostly Cloudy
Vidljivost: 10 km
Cloud details: Partly Cloudy 1219 m
Mostly Cloudy 2438 m
2020/10/01 16:00 BKPR 011600Z 24016KT 9999 SCT040 BKN080 17/07 Q1009 NOSIG
 
LHPP - Pecs / Pogany, Hungary
Ažurirano: 01/10/2020 17:45
Mostly Cloudy
Mostly Cloudy
 Pravac vetra JZ
Vetar: JZ 4 km/h
Temperatura: 18°C
Tačka rose: 11°C
Vlažnost: 64%
Pritisak: 1005 hPa
Oblaci: Mostly Cloudy
Vidljivost: 10 km
Cloud details: Few Clouds 1311 m
Mostly Cloudy 2530 m
2020/10/01 15:45 LHPP 011545Z 22002KT 9999 FEW043 BKN083 18/11 Q1005
LHUD - Szeged, Hungary
Ažurirano: 04/07/2019 01:45
NOT Current
Vedro
Vedro
 Pravac vetra S
Vetar: S 7 km/h
Temperatura: 18°C
Tačka rose: 13°C
Vlažnost: 73%
Pritisak: 1019 hPa
Pregled: Vedro
Vidljivost: greater than 10 km
2019/07/03 23:45 LHUD 032345Z 35004KT CAVOK 18/13 Q1019
LRTR - Timisoara, Romania
Ažurirano: 01/10/2020 18:00
Slaba kiša, Mist, Oblačno
Slaba kiša, Mist, Oblačno
 Pravac vetra J
Vetar: J 7 km/h
Temperatura: 14°C
Tačka rose: 14°C
Vlažnost: 100%
Pritisak: 1007 hPa
Pregled: Slaba kiša, Mist
Oblaci: Oblačno
Vidljivost: 4 km
Cloud details: Mostly Cloudy 610 m
Oblačno 1067 m
2020/10/01 16:00 LRTR 011600Z 18004KT 4000 -RA BR BKN020 OVC035 14/14 Q1007 R11/190095
 
LRCV - Craiova, Romania
Ažurirano: 01/10/2020 18:00
Mostly Cloudy
Mostly Cloudy
 Pravac vetra ZJZ
Vetar: ZJZ 11 km/h
Temperatura: 15°C
Tačka rose: 9°C
Vlažnost: 68%
Pritisak: 1007 hPa
Oblaci: Mostly Cloudy
Vidljivost: 10 km
Cloud details: Mostly Cloudy 2438 m
2020/10/01 16:00 LRCV 011600Z AUTO 25006KT 9999 BKN080/// 15/09 Q1007
LBSF - Sofia, Bulgaria
Ažurirano: 01/10/2020 18:00
Mostly Cloudy
Mostly Cloudy
 Pravac vetra varies
Vetar: varies 2 km/h
Temperatura: 14°C
Tačka rose: 10°C
Vlažnost: 77%
Pritisak: 1010 hPa
Oblaci: Mostly Cloudy
Vidljivost: 10 km
Cloud details: Mostly Cloudy 2499 m
2020/10/01 16:00 LBSF 011600Z VRB01KT 9999 BKN082 14/10 Q1010 NOSIG
LWSK - Skoplje, Makedonija
Ažurirano: 01/10/2020 18:00
Few Clouds
Few Clouds
 Pravac vetra J
Vetar: J 4 km/h
Temperatura: 19°C
Tačka rose: 11°C
Vlažnost: 60%
Pritisak: 1009 hPa
Oblaci: Few Clouds
Vidljivost: 10 km
Cloud details: Few Clouds 1829 m
2020/10/01 16:00 LWSK 011600Z 17002KT 9999 FEW060 19/11 Q1009 NOSIG
 
LYPG - Podgorica, Crna Gora
Ažurirano: 01/10/2020 18:00
Few Clouds
Few Clouds
 Pravac vetra JJI
Vetar: JJI 11 km/h
Temperatura: 20°C
Tačka rose: 14°C
Vlažnost: 69%
Pritisak: 1010 hPa
Oblaci: Few Clouds
Vidljivost: 10 km
Cloud details: Few Clouds 914 m
2020/10/01 16:00 LYPG 011600Z 15006KT 120V180 9999 FEW030 20/14 Q1010 NOSIG
LQSA - Sarajevo, Bosna i Hercegovina
Ažurirano: 01/10/2020 18:00
Vedro
Vedro
 Pravac vetra varies
Vetar: varies 7 km/h
Temperatura: 18°C
Tačka rose: 9°C
Vlažnost: 56%
Pritisak: 1008 hPa
Pregled: Vedro
Vidljivost: greater than 10 km
2020/10/01 16:00 LQSA 011600Z VRB04KT CAVOK 18/09 Q1008 NOSIG
LDOS - Osijek, Hrvatksa
Ažurirano: 01/10/2020 18:00
Vedro
Vedro
 Pravac vetra I
Vetar: I 4 km/h
Temperatura: 19°C
Tačka rose: 10°C
Vlažnost: 56%
Pritisak: 1005 hPa
Pregled: Vedro
Vidljivost: greater than 10 km
2020/10/01 16:00 LDOS 011600Z 08002KT CAVOK 19/10 Q1005